Time;durP1;ratioP1;P1;durP2;ratioP2;P2;SDS_P1;SDS_P2;PMS_P1;PMS_P2;Temp;Humidity;BMP_temperature;BMP_pressure;BME280_temperature;BME280_humidity;BME280_pressure;Samples;Min_cycle;Max_cycle;Signal;HPM_P1;HPM_P2
2021/01/21 00:02:07;;;;;;;3.17;1.50;;;16.10;99.90;;;;;;4991666;28;20073;-63
2021/01/21 00:04:32;;;;;;;2.90;1.38;;;16.00;99.90;;;;;;4991409;28;20046;-62
2021/01/21 00:06:58;;;;;;;3.47;1.25;;;16.00;99.90;;;;;;4992018;28;20031;-65
2021/01/21 00:09:23;;;;;;;2.83;1.23;;;16.00;99.90;;;;;;4991639;28;20387;-65
2021/01/21 00:11:49;;;;;;;2.33;1.30;;;15.90;99.90;;;;;;4999334;28;20030;-67
2021/01/21 00:14:15;;;;;;;2.15;1.23;;;15.90;99.90;;;;;;5011425;28;20068;-64
2021/01/21 00:16:40;;;;;;;2.35;1.58;;;15.90;99.90;;;;;;5011079;28;20379;-65
2021/01/21 00:19:06;;;;;;;1.88;1.20;;;15.90;99.90;;;;;;5011350;28;20030;-65
2021/01/21 00:21:32;;;;;;;2.60;1.25;;;15.90;99.90;;;;;;5010923;28;20413;-61
2021/01/21 00:23:58;;;;;;;2.65;1.40;;;15.90;99.90;;;;;;5011394;28;20037;-63
2021/01/21 00:26:25;;;;;;;1.92;1.38;;;15.80;99.90;;;;;;5011029;28;20082;-67
2021/01/21 00:28:51;;;;;;;3.08;1.50;;;15.80;99.90;;;;;;5010980;28;20029;-65
2021/01/21 00:31:16;;;;;;;2.83;1.40;;;15.80;99.90;;;;;;5011065;28;20029;-67
2021/01/21 00:33:42;;;;;;;5.63;1.40;;;15.80;99.90;;;;;;5010800;28;20042;-68
2021/01/21 00:36:08;;;;;;;2.03;1.27;;;15.80;99.90;;;;;;5009142;28;20057;-66
2021/01/21 00:38:33;;;;;;;2.72;1.58;;;15.80;99.90;;;;;;4991195;28;20030;-62
2021/01/21 00:40:59;;;;;;;4.25;1.23;;;15.80;99.90;;;;;;4993282;28;20332;-63
2021/01/21 00:43:25;;;;;;;3.08;1.17;;;15.80;99.90;;;;;;5009869;28;20018;-63
2021/01/21 00:45:55;;;;;;;3.50;1.30;;;15.80;99.90;;;;;;5010308;28;20386;-61
2021/01/21 00:48:20;;;;;;;3.08;1.25;;;15.70;99.90;;;;;;5011066;28;20022;-62
2021/01/21 00:50:46;;;;;;;3.58;1.38;;;15.70;99.90;;;;;;5010824;28;20109;-64
2021/01/21 00:53:12;;;;;;;5.07;1.35;;;15.70;99.90;;;;;;5010796;28;20410;-62
2021/01/21 00:55:37;;;;;;;2.72;1.38;;;15.70;99.90;;;;;;5009359;28;20026;-62
2021/01/21 00:58:03;;;;;;;3.65;1.45;;;15.70;99.90;;;;;;5010926;28;20526;-62
2021/01/21 01:00:29;;;;;;;2.17;1.33;;;15.70;99.90;;;;;;5011257;28;20414;-62
2021/01/21 01:02:55;;;;;;;2.47;1.30;;;15.70;99.90;;;;;;5013049;28;20141;-66
2021/01/21 01:05:21;;;;;;;2.70;1.42;;;15.60;99.90;;;;;;5014302;28;20483;-66
2021/01/21 01:07:47;;;;;;;2.83;1.35;;;15.60;99.90;;;;;;5014005;28;20026;-66
2021/01/21 01:10:12;;;;;;;2.53;1.50;;;15.60;99.90;;;;;;5014242;28;20497;-66
2021/01/21 01:12:38;;;;;;;3.63;1.23;;;15.60;99.90;;;;;;5012918;28;20072;-66
2021/01/21 01:15:07;;;;;;;5.25;1.40;;;15.60;99.90;;;;;;5014091;28;20072;-62
2021/01/21 01:17:33;;;;;;;2.85;1.20;;;15.60;99.90;;;;;;5013870;28;20484;-65
2021/01/21 01:19:58;;;;;;;1.98;1.20;;;15.60;99.90;;;;;;5014020;28;20080;-62
2021/01/21 01:22:24;;;;;;;2.45;1.00;;;15.60;99.90;;;;;;5013941;28;20068;-63
2021/01/21 01:24:49;;;;;;;1.63;1.17;;;15.50;99.90;;;;;;5013757;28;20037;-65
2021/01/21 01:27:15;;;;;;;2.67;1.35;;;15.60;99.90;;;;;;5013932;28;20485;-65
2021/01/21 01:29:41;;;;;;;3.15;1.13;;;15.50;99.90;;;;;;5013568;28;20117;-68
2021/01/21 01:32:06;;;;;;;2.00;1.27;;;15.50;99.90;;;;;;5013843;28;20393;-68
2021/01/21 01:34:32;;;;;;;2.53;1.40;;;15.50;99.90;;;;;;5013531;28;20034;-62
2021/01/21 01:36:57;;;;;;;3.13;1.35;;;15.50;99.90;;;;;;5003343;28;20162;-69
2021/01/21 01:39:23;;;;;;;3.08;1.33;;;15.50;99.90;;;;;;4994395;28;20033;-68
2021/01/21 01:41:48;;;;;;;4.05;1.35;;;15.50;99.90;;;;;;5012715;28;20039;-65
2021/01/21 01:44:14;;;;;;;1.90;1.20;;;15.50;99.90;;;;;;5013381;28;20378;-66
2021/01/21 01:46:40;;;;;;;2.88;1.27;;;15.50;99.90;;;;;;5013325;28;20025;-66
2021/01/21 01:49:06;;;;;;;3.65;1.08;;;15.40;99.90;;;;;;5013639;28;20033;-63
2021/01/21 01:51:31;;;;;;;2.58;1.30;;;15.40;99.90;;;;;;5013690;28;20076;-62
2021/01/21 01:54:00;;;;;;;2.17;1.15;;;15.40;99.90;;;;;;4998409;28;20034;-68
2021/01/21 01:56:26;;;;;;;2.25;1.23;;;15.40;99.90;;;;;;4993821;28;20027;-63
2021/01/21 01:58:53;;;;;;;4.75;1.30;;;15.40;99.90;;;;;;4993610;28;20419;-65
2021/01/21 02:01:19;;;;;;;2.10;1.20;;;15.40;99.90;;;;;;5011300;28;20033;-64
2021/01/21 02:03:48;;;;;;;3.75;1.50;;;15.40;99.90;;;;;;5012939;28;20021;-65
2021/01/21 02:06:14;;;;;;;4.70;1.25;;;15.40;99.90;;;;;;5013090;28;20554;-69
2021/01/21 02:08:40;;;;;;;2.20;1.25;;;15.30;99.90;;;;;;5012970;28;20109;-65
2021/01/21 02:11:41;;;;;;;2.15;1.20;;;15.40;99.90;;;;;;5012755;28;20022;-62
2021/01/21 02:14:36;;;;;;;3.25;1.00;;;15.40;99.90;;;;;;5008682;28;20046;-62
2021/01/21 02:17:32;;;;;;;2.85;1.00;;;15.40;99.90;;;;;;5013234;28;20026;-63
2021/01/21 02:20:22;;;;;;;1.60;1.05;;;15.30;99.90;;;;;;5003802;28;20029;-65
2021/01/21 02:23:09;;;;;;;3.85;1.20;;;15.30;99.90;;;;;;5012824;28;20374;-62
2021/01/21 02:25:46;;;;;;;3.95;1.23;;;15.30;99.90;;;;;;5012619;28;20112;-65
2021/01/21 02:28:12;;;;;;;2.28;0.90;;;15.30;99.90;;;;;;5012156;28;20018;-69
2021/01/21 02:30:49;;;;;;;2.03;1.15;;;15.20;99.90;;;;;;5012514;28;20383;-68
2021/01/21 02:33:42;;;;;;;3.60;0.95;;;15.20;99.90;;;;;;5012497;28;20068;-64
2021/01/21 02:36:14;;;;;;;4.22;1.20;;;15.20;99.90;;;;;;5012699;28;20030;-63
2021/01/21 02:38:41;;;;;;;2.58;1.27;;;15.10;99.90;;;;;;5010723;28;20026;-63
2021/01/21 02:41:07;;;;;;;2.92;0.93;;;15.10;99.90;;;;;;5012212;28;20021;-62
2021/01/21 02:43:33;;;;;;;3.13;1.20;;;15.10;99.90;;;;;;5011964;28;20018;-65
2021/01/21 02:45:59;;;;;;;3.20;0.93;;;15.10;99.90;;;;;;5012501;28;20105;-65
2021/01/21 02:48:24;;;;;;;2.80;1.15;;;15.00;99.90;;;;;;5012443;28;20378;-64
2021/01/21 02:50:59;;;;;;;4.00;1.20;;;15.00;99.90;;;;;;5012203;28;20022;-62
2021/01/21 02:53:25;;;;;;;2.53;1.10;;;15.00;99.90;;;;;;5012340;28;20030;-63
2021/01/21 02:56:00;;;;;;;2.47;0.93;;;14.90;99.90;;;;;;5012004;28;20026;-62
2021/01/21 02:58:32;;;;;;;2.45;0.85;;;14.90;99.90;;;;;;5007889;28;20042;-63
2021/01/21 03:01:00;;;;;;;2.65;1.20;;;14.90;99.90;;;;;;4992837;28;20030;-62
2021/01/21 03:03:27;;;;;;;3.22;1.20;;;14.90;99.90;;;;;;4992466;28;20036;-64
2021/01/21 03:05:57;;;;;;;2.45;0.90;;;14.80;99.90;;;;;;4992230;28;20545;-61
2021/01/21 03:08:24;;;;;;;2.92;1.10;;;14.80;99.90;;;;;;4992514;28;20082;-62
2021/01/21 03:10:49;;;;;;;2.67;1.00;;;14.80;99.90;;;;;;4998881;28;20030;-62
2021/01/21 03:13:15;;;;;;;3.35;1.00;;;14.80;99.90;;;;;;5012084;28;20088;-62
2021/01/21 03:15:40;;;;;;;2.88;1.08;;;14.80;99.90;;;;;;5011767;28;20033;-61
2021/01/21 03:18:07;;;;;;;3.78;1.20;;;14.80;99.90;;;;;;5011967;28;20524;-62
2021/01/21 03:20:32;;;;;;;2.30;0.75;;;14.70;99.90;;;;;;5011669;28;20108;-61
2021/01/21 03:22:58;;;;;;;3.33;0.93;;;14.70;99.90;;;;;;5012206;28;20152;-62
2021/01/21 03:25:23;;;;;;;4.65;1.00;;;14.70;99.90;;;;;;5011726;28;20133;-67
2021/01/21 03:27:49;;;;;;;3.47;0.90;;;14.70;99.90;;;;;;5010772;28;20331;-69
2021/01/21 03:30:15;;;;;;;2.35;0.88;;;14.60;99.90;;;;;;5011855;28;20100;-67
2021/01/21 03:32:41;;;;;;;3.28;0.80;;;14.60;99.90;;;;;;5011430;28;20045;-67
2021/01/21 03:35:07;;;;;;;4.28;0.85;;;14.60;99.90;;;;;;5011658;28;20382;-67
2021/01/21 03:37:33;;;;;;;4.93;1.15;;;14.60;99.90;;;;;;5011657;28;20072;-66
2021/01/21 03:39:59;;;;;;;3.40;0.90;;;14.60;99.90;;;;;;5011911;28;20021;-67
2021/01/21 03:42:25;;;;;;;3.40;0.90;;;14.60;99.90;;;;;;5011137;28;20047;-67
2021/01/21 03:44:50;;;;;;;2.67;0.70;;;14.50;99.90;;;;;;5011349;28;20072;-67
2021/01/21 03:47:16;;;;;;;5.65;1.10;;;14.50;99.90;;;;;;5011579;28;20048;-68
2021/01/21 03:49:42;;;;;;;3.95;0.98;;;14.50;99.90;;;;;;5011347;28;20030;-69
2021/01/21 03:52:07;;;;;;;4.47;1.10;;;14.50;99.90;;;;;;5011532;28;20029;-66
2021/01/21 03:54:33;;;;;;;3.63;1.10;;;14.50;99.90;;;;;;5011078;28;20044;-68
2021/01/21 03:56:58;;;;;;;2.92;1.13;;;14.40;99.90;;;;;;5011721;28;20025;-68
2021/01/21 03:59:24;;;;;;;5.68;1.10;;;14.40;99.90;;;;;;5005586;28;20034;-67
2021/01/21 04:01:50;;;;;;;5.57;1.23;;;14.40;99.90;;;;;;5011120;28;20030;-63
2021/01/21 04:04:16;;;;;;;5.10;1.02;;;14.40;99.90;;;;;;5011348;28;20042;-65
2021/01/21 04:06:42;;;;;;;5.50;1.13;;;14.30;99.90;;;;;;5011193;28;20398;-67
2021/01/21 04:09:07;;;;;;;6.35;1.05;;;14.30;99.90;;;;;;5011313;28;20037;-66
2021/01/21 04:11:33;;;;;;;5.88;1.40;;;14.30;99.90;;;;;;5010665;28;20037;-64
2021/01/21 04:13:59;;;;;;;4.53;1.20;;;14.30;99.90;;;;;;5010385;28;20445;-63
2021/01/21 04:16:25;;;;;;;6.30;1.38;;;14.30;99.90;;;;;;5011254;28;20060;-65
2021/01/21 04:18:50;;;;;;;4.68;1.20;;;14.20;99.90;;;;;;5006177;28;20382;-62
2021/01/21 04:21:16;;;;;;;8.32;1.27;;;14.20;99.90;;;;;;4999891;28;20026;-63
2021/01/21 04:23:42;;;;;;;4.93;1.20;;;14.20;99.90;;;;;;5010936;28;20097;-62
2021/01/21 04:26:07;;;;;;;6.35;1.20;;;14.20;99.90;;;;;;5011210;28;20033;-62
2021/01/21 04:28:33;;;;;;;4.57;1.30;;;14.20;99.90;;;;;;5010926;28;20025;-62
2021/01/21 04:30:59;;;;;;;2.35;0.82;;;14.20;99.90;;;;;;5011435;28;20458;-62
2021/01/21 04:33:24;;;;;;;5.20;1.00;;;14.20;99.90;;;;;;5011050;28;20105;-62
2021/01/21 04:35:50;;;;;;;4.85;0.90;;;14.20;99.90;;;;;;5011111;28;20026;-61
2021/01/21 04:38:16;;;;;;;4.72;1.20;;;14.10;99.90;;;;;;5014077;28;20050;-63
2021/01/21 04:40:43;;;;;;;4.13;1.10;;;14.10;99.90;;;;;;5014021;28;20508;-63
2021/01/21 04:43:08;;;;;;;4.82;1.20;;;14.10;99.90;;;;;;5014719;28;20457;-65
2021/01/21 04:45:35;;;;;;;4.80;1.00;;;14.10;99.90;;;;;;5014455;28;20029;-61
2021/01/21 04:48:00;;;;;;;5.57;1.23;;;14.10;99.90;;;;;;5014863;28;20021;-61
2021/01/21 04:50:28;;;;;;;4.40;1.17;;;14.10;99.90;;;;;;5014596;28;20077;-64
2021/01/21 04:52:55;;;;;;;5.20;1.23;;;14.10;99.90;;;;;;5014265;28;20360;-64
2021/01/21 04:55:33;;;;;;;7.55;1.40;;;14.10;99.90;;;;;;5014455;28;20062;-61
2021/01/21 04:58:21;;;;;;;5.15;1.48;;;14.00;99.90;;;;;;5014886;28;20049;-65
2021/01/21 05:00:48;;;;;;;5.55;1.08;;;14.00;99.90;;;;;;5013479;28;20174;-60
2021/01/21 05:03:14;;;;;;;4.95;1.23;;;14.00;99.90;;;;;;5014440;28;20025;-60
2021/01/21 05:05:40;;;;;;;6.05;1.20;;;14.00;99.90;;;;;;4996586;28;20033;-62
2021/01/21 05:08:07;;;;;;;5.88;1.38;;;14.00;99.90;;;;;;4994781;28;20039;-62
2021/01/21 05:10:34;;;;;;;5.85;1.17;;;14.00;99.90;;;;;;5002901;28;20014;-62
2021/01/21 05:12:59;;;;;;;5.22;1.13;;;14.00;99.90;;;;;;5014527;28;20382;-63
2021/01/21 05:15:25;;;;;;;5.70;1.08;;;13.90;99.90;;;;;;5014181;28;20048;-62
2021/01/21 05:17:51;;;;;;;4.38;1.05;;;14.00;99.90;;;;;;5013795;28;20489;-62
2021/01/21 05:20:25;;;;;;;6.75;1.27;;;13.90;99.90;;;;;;5013747;28;20091;-62
2021/01/21 05:23:02;;;;;;;4.75;1.35;;;13.90;99.90;;;;;;5013884;28;20149;-62
2021/01/21 05:25:29;;;;;;;7.65;1.48;;;13.90;99.90;;;;;;5013426;28;20018;-61
2021/01/21 05:27:57;;;;;;;3.80;0.90;;;13.90;99.90;;;;;;5013787;28;20025;-63
2021/01/21 05:30:27;;;;;;;6.38;1.38;;;13.90;99.90;;;;;;5013774;28;20355;-62
2021/01/21 05:32:54;;;;;;;4.00;1.13;;;13.90;99.90;;;;;;5013504;28;20030;-61
2021/01/21 05:35:19;;;;;;;6.18;1.10;;;13.90;99.90;;;;;;5013719;28;20038;-60
2021/01/21 05:37:54;;;;;;;6.25;1.45;;;13.90;99.90;;;;;;5013546;28;20028;-60
2021/01/21 05:40:21;;;;;;;6.57;1.60;;;13.80;99.90;;;;;;5013368;28;20029;-60
2021/01/21 05:42:50;;;;;;;3.72;1.08;;;13.90;99.90;;;;;;5013472;28;20033;-61
2021/01/21 05:45:19;;;;;;;7.75;1.25;;;13.80;99.90;;;;;;5013655;28;20076;-65
2021/01/21 05:47:51;;;;;;;6.00;1.20;;;13.80;99.90;;;;;;5013373;28;20084;-65
2021/01/21 05:50:17;;;;;;;7.50;1.35;;;13.90;99.90;;;;;;5013627;28;20022;-64
2021/01/21 05:52:43;;;;;;;6.32;1.05;;;13.80;99.90;;;;;;5012012;28;20518;-64
2021/01/21 05:55:09;;;;;;;7.47;1.38;;;13.80;99.90;;;;;;5013346;28;20034;-64
2021/01/21 05:57:35;;;;;;;5.20;1.38;;;13.80;99.90;;;;;;5013106;28;20026;-64
2021/01/21 06:00:01;;;;;;;5.13;1.33;;;13.80;99.90;;;;;;4999491;28;20038;-63
2021/01/21 06:02:27;;;;;;;7.07;1.20;;;13.80;99.90;;;;;;5012984;28;20165;-68
2021/01/21 06:05:02;;;;;;;7.43;1.80;;;13.80;99.90;;;;;;5013036;28;20042;-68
2021/01/21 06:07:31;;;;;;;4.95;1.10;;;13.80;99.90;;;;;;5011644;28;20030;-67
2021/01/21 06:09:59;;;;;;;7.57;1.35;;;13.80;99.90;;;;;;5013326;28;20485;-66
2021/01/21 06:12:28;;;;;;;5.95;1.55;;;13.70;99.90;;;;;;5013395;28;20505;-68
2021/01/21 06:14:59;;;;;;;5.43;1.20;;;13.70;99.90;;;;;;5013144;28;20402;-67
2021/01/21 06:17:25;;;;;;;4.70;1.20;;;13.70;99.90;;;;;;5013216;28;20029;-67
2021/01/21 06:19:51;;;;;;;6.05;1.33;;;13.70;99.90;;;;;;5013088;28;20030;-65
2021/01/21 06:22:23;;;;;;;8.50;1.80;;;13.70;99.90;;;;;;5013198;28;20084;-68
2021/01/21 06:24:52;;;;;;;4.05;1.13;;;13.70;99.90;;;;;;5013092;28;20428;-67
2021/01/21 06:27:19;;;;;;;4.93;1.45;;;13.70;99.90;;;;;;5012953;28;20374;-67
2021/01/21 06:29:47;;;;;;;5.40;1.10;;;13.70;99.90;;;;;;5012832;28;20026;-64
2021/01/21 06:32:16;;;;;;;7.68;1.85;;;13.70;99.90;;;;;;5012746;28;20017;-66
2021/01/21 06:34:43;;;;;;;5.75;1.25;;;13.70;99.90;;;;;;5011271;28;20037;-66
2021/01/21 06:37:17;;;;;;;6.35;1.60;;;13.70;99.90;;;;;;5012797;28;20018;-67
2021/01/21 06:39:53;;;;;;;3.60;0.98;;;13.70;99.90;;;;;;5012764;28;20105;-63
2021/01/21 06:42:29;;;;;;;5.32;1.48;;;13.70;99.90;;;;;;5003561;28;20096;-64
2021/01/21 06:44:56;;;;;;;8.70;1.80;;;13.70;99.90;;;;;;5009881;28;20389;-65
2021/01/21 06:47:22;;;;;;;5.15;1.23;;;13.70;99.90;;;;;;5010909;28;20022;-64
2021/01/21 06:49:54;;;;;;;4.43;0.98;;;13.80;99.90;;;;;;5012522;28;20026;-63
2021/01/21 06:52:21;;;;;;;7.63;1.00;;;14.20;99.90;;;;;;5012264;28;20030;-62
2021/01/21 06:54:47;;;;;;;5.72;1.30;;;14.50;99.90;;;;;;5012346;28;20496;-61
2021/01/21 06:57:34;;;;;;;7.82;1.13;;;14.80;99.90;;;;;;5006303;28;20019;-59
2021/01/21 07:00:00;;;;;;;3.50;1.02;;;15.10;99.90;;;;;;5004515;28;20029;-63
2021/01/21 07:02:46;;;;;;;4.07;1.00;;;15.30;99.90;;;;;;5012221;28;20034;-62
2021/01/21 07:05:23;;;;;;;3.28;0.90;;;15.50;99.90;;;;;;5011543;28;20036;-62
2021/01/21 07:08:00;;;;;;;4.20;0.95;;;15.70;99.90;;;;;;5011980;28;20385;-61
2021/01/21 07:10:28;;;;;;;7.70;1.10;;;15.90;99.90;;;;;;5012392;28;20044;-61
2021/01/21 07:12:55;;;;;;;5.50;1.10;;;15.90;99.90;;;;;;5005351;28;20030;-61
2021/01/21 07:15:32;;;;;;;4.90;0.90;;;16.00;99.90;;;;;;4992490;28;20037;-62
2021/01/21 07:18:05;;;;;;;3.58;0.73;;;16.00;99.90;;;;;;4996936;28;20033;-62
2021/01/21 07:20:35;;;;;;;4.63;1.05;;;16.10;99.90;;;;;;5012596;28;20030;-63
2021/01/21 07:23:05;;;;;;;9.07;0.93;;;16.20;99.90;;;;;;5010877;28;20030;-62
2021/01/21 07:25:31;;;;;;;3.50;1.08;;;16.20;99.90;;;;;;5012411;28;20018;-62
2021/01/21 07:27:58;;;;;;;3.92;1.00;;;16.10;99.90;;;;;;5002920;28;20037;-62
2021/01/21 07:30:26;;;;;;;3.75;0.70;;;16.10;99.90;;;;;;5011686;28;20105;-62
2021/01/21 07:33:23;;;;;;;3.63;0.95;;;16.10;99.90;;;;;;5010857;28;20466;-62
2021/01/21 07:35:50;;;;;;;3.65;1.10;;;16.00;99.90;;;;;;5001863;28;20494;-62
2021/01/21 07:38:51;;;;;;;5.50;0.90;;;16.00;99.90;;;;;;4993350;28;20030;-63
2021/01/21 07:41:41;;;;;;;4.82;1.25;;;15.90;99.90;;;;;;4986182;28;20054;-62
2021/01/21 07:44:07;;;;;;;4.07;1.05;;;15.90;99.90;;;;;;4992253;28;20495;-62
2021/01/21 07:46:32;;;;;;;3.40;1.02;;;15.80;99.90;;;;;;4991941;28;20061;-62
2021/01/21 07:49:29;;;;;;;7.05;1.35;;;15.80;99.90;;;;;;4992475;28;20030;-65
2021/01/21 07:52:01;;;;;;;3.95;0.98;;;15.80;99.90;;;;;;4991889;28;20037;-73
2021/01/21 07:54:43;;;;;;;4.35;1.30;;;15.80;99.90;;;;;;4992652;28;20117;-63
2021/01/21 07:57:09;;;;;;;10.27;2.13;;;15.80;99.90;;;;;;5011699;28;20478;-63
2021/01/21 07:59:56;;;;;;;5.38;1.73;;;14.90;99.90;;;;;;5009166;28;20067;-63
2021/01/21 08:02:21;;;;;;;5.75;1.00;;;15.30;99.90;;;;;;5011487;28;20568;-64
2021/01/21 08:04:58;;;;;;;3.35;0.98;;;16.60;99.90;;;;;;5011351;28;20038;-64
2021/01/21 08:07:23;;;;;;;5.82;1.20;;;17.70;99.90;;;;;;5011581;28;20022;-64
2021/01/21 08:10:05;;;;;;;6.22;1.10;;;18.40;99.90;;;;;;5010595;28;20030;-62
2021/01/21 08:12:31;;;;;;;3.80;1.00;;;18.90;99.90;;;;;;5012948;28;20044;-62
2021/01/21 08:14:58;;;;;;;3.20;0.98;;;19.30;99.90;;;;;;5010939;28;20038;-64
2021/01/21 08:17:23;;;;;;;4.90;0.90;;;19.60;99.90;;;;;;5002392;28;20430;-61
2021/01/21 08:19:49;;;;;;;3.40;0.90;;;19.80;99.90;;;;;;5015395;28;20105;-65
2021/01/21 08:22:14;;;;;;;3.88;0.63;;;19.10;99.90;;;;;;5007854;28;20359;-51
2021/01/21 08:25:00;;;;;;;2.40;0.70;;;18.30;99.90;;;;;;4996760;28;20023;-65
2021/01/21 08:27:48;;;;;;;1.52;0.50;;;17.40;99.90;;;;;;5013372;28;20434;-51
2021/01/21 08:30:25;;;;;;;1.95;0.63;;;17.70;99.90;;;;;;5000291;28;20053;-54
2021/01/21 08:33:13;;;;;;;2.15;0.80;;;18.70;99.90;;;;;;5005730;28;20486;-54
2021/01/21 08:35:44;;;;;;;2.17;0.45;;;18.60;99.90;;;;;;5004200;28;20092;-55
2021/01/21 08:38:12;;;;;;;1.10;0.30;;;17.80;99.90;;;;;;5003524;28;20041;-52
2021/01/21 08:40:39;;;;;;;1.58;0.40;;;17.30;99.90;;;;;;5013972;28;20088;-51
2021/01/21 08:43:06;;;;;;;2.35;0.47;;;17.00;99.90;;;;;;5009268;28;20037;-55
2021/01/21 08:45:32;;;;;;;2.10;0.60;;;18.30;99.90;;;;;;5005632;28;20026;-51
2021/01/21 08:47:58;;;;;;;4.25;0.55;;;18.80;99.90;;;;;;5010704;28;20030;-51
2021/01/21 08:50:37;;;;;;;1.15;0.43;;;18.30;99.90;;;;;;5014860;28;20026;-55
2021/01/21 08:53:07;;;;;;;1.52;0.55;;;17.50;99.90;;;;;;5015168;28;20030;-58
2021/01/21 08:55:53;;;;;;;1.90;0.50;;;17.00;99.90;;;;;;5014448;28;20045;-62
2021/01/21 08:58:29;;;;;;;1.90;0.50;;;16.80;99.90;;;;;;5014725;28;20486;-65
2021/01/21 09:01:10;;;;;;;1.95;0.40;;;18.10;99.90;;;;;;5012645;28;20485;-59
2021/01/21 09:03:48;;;;;;;1.65;0.50;;;18.50;99.90;;;;;;4994748;28;20180;-61
2021/01/21 09:06:24;;;;;;;1.35;0.40;;;18.00;99.90;;;;;;4993932;28;20035;-57
2021/01/21 09:08:57;;;;;;;3.00;0.50;;;17.40;99.90;;;;;;4993648;28;20064;-59
2021/01/21 09:11:32;;;;;;;1.23;0.43;;;17.00;99.90;;;;;;4993891;28;20052;-64
2021/01/21 09:13:59;;;;;;;1.77;0.50;;;16.70;99.90;;;;;;5004777;28;20132;-65
2021/01/21 09:16:49;;;;;;;2.10;0.40;;;16.60;99.90;;;;;;5007973;28;20443;-52
2021/01/21 09:19:35;;;;;;;1.88;0.52;;;18.10;99.90;;;;;;5005035;28;20065;-58
2021/01/21 09:22:07;;;;;;;2.05;0.60;;;18.60;99.90;;;;;;4990052;28;20117;-55
2021/01/21 09:24:34;;;;;;;2.55;0.63;;;18.00;99.90;;;;;;4993063;28;20593;-53
2021/01/21 09:27:18;;;;;;;2.88;0.50;;;17.40;99.90;;;;;;4992441;28;20034;-54
2021/01/21 09:29:55;;;;;;;2.10;0.67;;;17.00;99.90;;;;;;4998880;28;20048;-61
2021/01/21 09:32:23;;;;;;;1.83;0.60;;;17.40;99.90;;;;;;5012570;28;20645;-62
2021/01/21 09:35:06;;;;;;;1.52;0.50;;;18.60;99.90;;;;;;5012741;28;20034;-61
2021/01/21 09:37:49;;;;;;;1.73;0.47;;;18.50;99.90;;;;;;4995150;28;20462;-53
2021/01/21 09:40:20;;;;;;;2.03;0.50;;;17.70;99.90;;;;;;4994294;28;20398;-62
2021/01/21 09:42:46;;;;;;;2.05;0.40;;;17.20;99.90;;;;;;4992977;28;20479;-62
2021/01/21 09:45:12;;;;;;;1.15;0.38;;;16.90;99.90;;;;;;4993289;28;20030;-64
2021/01/21 09:47:38;;;;;;;1.60;0.43;;;16.70;99.90;;;;;;4994154;28;20030;-63
2021/01/21 09:50:06;;;;;;;1.13;0.40;;;17.00;99.90;;;;;;4993273;28;20065;-62
2021/01/21 09:52:32;;;;;;;2.60;0.50;;;18.40;99.90;;;;;;5005258;28;20045;-64
2021/01/21 09:54:58;;;;;;;1.00;0.40;;;18.50;99.90;;;;;;5012747;28;20029;-63
2021/01/21 09:57:26;;;;;;;2.25;0.35;;;17.90;99.90;;;;;;5012108;28;20141;-61
2021/01/21 09:59:51;;;;;;;2.40;0.50;;;17.40;99.90;;;;;;5011784;28;20061;-62
2021/01/21 10:02:17;;;;;;;1.95;0.50;;;17.00;99.90;;;;;;5011997;28;20061;-53
2021/01/21 10:04:43;;;;;;;3.40;0.55;;;16.80;99.90;;;;;;4991628;28;595784;-60
2021/01/21 10:07:09;;;;;;;2.63;0.60;;;18.10;99.90;;;;;;5013331;28;20470;-61
2021/01/21 10:09:36;;;;;;;2.40;0.63;;;18.70;99.90;;;;;;4996654;28;20045;-61
2021/01/21 10:12:03;;;;;;;4.07;0.80;;;18.20;99.90;;;;;;4994058;28;20037;-57
2021/01/21 10:14:28;;;;;;;3.22;0.50;;;17.70;99.90;;;;;;4993952;28;20487;-62
2021/01/21 10:16:55;;;;;;;3.00;0.80;;;17.20;99.90;;;;;;4993650;28;20105;-62
2021/01/21 10:19:20;;;;;;;1.88;0.40;;;16.90;99.90;;;;;;4993923;28;20117;-62
2021/01/21 10:21:46;;;;;;;1.77;0.50;;;17.00;99.90;;;;;;4993265;28;20058;-61
2021/01/21 10:24:11;;;;;;;1.83;0.50;;;18.40;99.90;;;;;;4993704;28;20026;-61
2021/01/21 10:26:38;;;;;;;1.73;0.40;;;18.50;99.90;;;;;;5008485;28;20054;-58
2021/01/21 10:29:03;;;;;;;3.00;0.50;;;18.00;99.90;;;;;;5007464;28;20026;-61
2021/01/21 10:31:29;;;;;;;2.08;0.82;;;17.50;99.90;;;;;;5013089;28;20110;-62
2021/01/21 10:33:55;;;;;;;2.83;0.88;;;17.00;99.90;;;;;;5012434;28;20026;-61
2021/01/21 10:36:21;;;;;;;2.45;0.50;;;16.80;99.90;;;;;;5012467;28;20029;-61
2021/01/21 10:38:46;;;;;;;2.20;0.50;;;16.60;99.90;;;;;;5012495;28;20045;-62
2021/01/21 10:41:12;;;;;;;1.63;0.35;;;16.40;99.90;;;;;;5011668;28;20470;-62
2021/01/21 10:43:38;;;;;;;1.48;0.52;;;16.60;99.90;;;;;;5012657;28;20535;-61
2021/01/21 10:46:04;;;;;;;0.80;0.30;;;18.10;99.90;;;;;;5012857;28;20026;-60
2021/01/21 10:48:30;;;;;;;3.15;0.40;;;19.30;99.90;;;;;;5013033;28;20030;-62
2021/01/21 10:50:55;;;;;;;1.55;0.30;;;20.20;99.90;;;;;;5012316;28;20033;-59
2021/01/21 10:53:21;;;;;;;3.20;0.52;;;20.70;99.90;;;;;;5012826;28;20030;-61
2021/01/21 10:55:47;;;;;;;1.38;0.40;;;21.20;99.90;;;;;;5012363;28;20080;-59
2021/01/21 10:58:13;;;;;;;0.70;0.22;;;21.50;99.90;;;;;;5012654;28;20029;-63
2021/01/21 11:00:40;;;;;;;1.85;0.30;;;21.90;99.90;;;;;;5011995;28;20021;-59
2021/01/21 11:03:05;;;;;;;1.63;0.38;;;22.10;99.90;;;;;;5010954;28;20117;-59
2021/01/21 11:05:31;;;;;;;0.82;0.20;;;22.30;99.90;;;;;;5012606;28;20434;-59
2021/01/21 11:07:57;;;;;;;2.00;0.38;;;22.50;99.90;;;;;;5007363;28;20484;-59
2021/01/21 11:10:22;;;;;;;2.25;0.50;;;22.60;99.90;;;;;;4992770;28;20018;-59
2021/01/21 11:12:48;;;;;;;1.45;0.40;;;22.00;99.90;;;;;;4992571;28;20058;-60
2021/01/21 11:15:17;;;;;;;1.98;0.30;;;20.90;99.90;;;;;;4992774;28;20517;-60
2021/01/21 11:17:47;;;;;;;1.60;0.20;;;20.00;99.90;;;;;;5008608;28;20022;-61
2021/01/21 11:20:14;;;;;;;1.20;0.40;;;19.30;99.90;;;;;;5010369;28;20026;-61
2021/01/21 11:22:40;;;;;;;1.60;0.40;;;18.90;99.90;;;;;;5011948;28;20101;-59
2021/01/21 11:25:10;;;;;;;2.65;0.38;;;18.50;99.90;;;;;;5012382;28;20037;-61
2021/01/21 11:27:37;;;;;;;2.35;0.30;;;18.30;99.90;;;;;;5009584;28;20025;-61
2021/01/21 11:30:05;;;;;;;1.05;0.20;;;18.10;99.90;;;;;;5011859;28;20125;-61
2021/01/21 11:32:31;;;;;;;1.65;0.30;;;17.90;99.90;;;;;;5012420;28;20085;-60
2021/01/21 11:34:56;;;;;;;0.85;0.25;;;18.60;99.90;;;;;;5011662;28;20033;-59
2021/01/21 11:37:22;;;;;;;0.60;0.20;;;20.00;99.90;;;;;;5009465;28;20438;-60
2021/01/21 11:39:47;;;;;;;1.02;0.30;;;21.00;99.90;;;;;;5002234;28;20072;-60
2021/01/21 11:42:13;;;;;;;1.45;0.47;;;21.70;99.90;;;;;;5005327;28;20425;-60
2021/01/21 11:44:38;;;;;;;1.17;0.40;;;21.90;99.90;;;;;;5011032;28;20397;-59
2021/01/21 11:47:04;;;;;;;1.35;0.40;;;21.10;99.90;;;;;;5011809;28;20022;-60
2021/01/21 11:49:30;;;;;;;1.20;0.30;;;20.10;99.90;;;;;;5011721;28;20387;-59
2021/01/21 11:51:55;;;;;;;2.47;0.30;;;19.40;99.90;;;;;;5011299;28;20069;-60
2021/01/21 11:54:21;;;;;;;1.88;0.20;;;18.90;99.90;;;;;;5008032;28;20050;-60
2021/01/21 11:56:48;;;;;;;1.98;0.40;;;18.50;99.90;;;;;;5002644;28;20105;-60
2021/01/21 11:59:13;;;;;;;1.80;0.35;;;18.30;99.90;;;;;;5011876;28;20030;-60
2021/01/21 12:01:41;;;;;;;1.27;0.30;;;18.10;99.90;;;;;;5011481;28;20018;-60
2021/01/21 12:04:07;;;;;;;1.33;0.40;;;17.90;99.90;;;;;;5011565;28;20030;-60
2021/01/21 12:06:32;;;;;;;1.92;0.40;;;17.90;99.90;;;;;;5011418;28;20030;-60
2021/01/21 12:08:58;;;;;;;3.72;0.90;;;17.70;99.90;;;;;;5012060;28;20493;-60
2021/01/21 12:11:23;;;;;;;3.10;0.90;;;17.50;99.90;;;;;;5011622;28;20505;-60
2021/01/21 12:13:49;;;;;;;2.40;0.77;;;17.20;99.90;;;;;;4992236;28;20045;-60
2021/01/21 12:16:14;;;;;;;3.75;1.05;;;17.10;99.90;;;;;;4991883;28;20037;-60
2021/01/21 12:18:40;;;;;;;3.63;1.00;;;17.00;99.90;;;;;;4991686;28;20551;-60
2021/01/21 12:21:06;;;;;;;3.58;1.00;;;16.90;99.90;;;;;;5003769;28;20030;-59
2021/01/21 12:23:31;;;;;;;2.47;0.73;;;16.90;99.90;;;;;;5011425;28;20033;-58
2021/01/21 12:25:59;;;;;;;2.47;0.80;;;16.90;99.90;;;;;;5011636;28;20057;-59
2021/01/21 12:28:25;;;;;;;3.10;0.80;;;16.90;99.90;;;;;;5011628;28;20080;-60
2021/01/21 12:30:51;;;;;;;3.83;0.93;;;16.90;99.90;;;;;;5011247;28;20421;-60
2021/01/21 12:33:17;;;;;;;3.88;1.00;;;16.90;99.90;;;;;;5009877;28;20026;-59
2021/01/21 12:35:42;;;;;;;1.38;0.70;;;16.80;99.90;;;;;;5009179;28;20045;-60
2021/01/21 12:38:08;;;;;;;2.50;0.93;;;16.80;99.90;;;;;;5008557;28;20434;-61
2021/01/21 12:40:33;;;;;;;2.72;0.93;;;16.70;99.90;;;;;;5009601;28;20393;-60
2021/01/21 12:42:59;;;;;;;3.13;0.80;;;16.70;99.90;;;;;;5010275;28;20025;-60
2021/01/21 12:45:25;;;;;;;2.63;0.80;;;16.70;99.90;;;;;;5010128;28;20030;-60
2021/01/21 12:47:50;;;;;;;2.38;0.82;;;16.60;99.90;;;;;;5011009;28;20494;-60
2021/01/21 12:50:16;;;;;;;3.58;1.05;;;16.60;99.90;;;;;;5011104;28;20060;-60
2021/01/21 12:52:42;;;;;;;2.45;0.80;;;16.50;99.90;;;;;;5011159;28;20026;-62
2021/01/21 12:55:09;;;;;;;2.38;0.68;;;16.50;99.90;;;;;;5010079;28;20030;-62
2021/01/21 12:57:35;;;;;;;3.90;1.00;;;16.40;99.90;;;;;;4998170;28;20100;-61